Terminal Aerodrome Forecast
Issued by NWS Corpus Christi, TX

Home | Current Version | Previous Version | Text Only | Print | Product List | Glossary On
Versions: 1 2 3 4 5 6 7 8 9 10 11 12 13 14 15 16 17
000
FTUS44 KCRP 280623 AAB
TAFCRP
TAF AMD
KCRP 280623Z 2806/2906 15009KT P6SM SCT015
      TEMPO 2806/2810 BKN015
     FM281500 16012G18KT P6SM SCT025
     FM281900 14018G26KT P6SM FEW035
     FM290200 14011KT P6SM FEW017=

USA.gov is the U.S. government's official web portal to all federal, state and local government web resources and services.